Time;durP1;ratioP1;P1;durP2;ratioP2;P2;SDS_P1;SDS_P2;PMS_P1;PMS_P2;Temp;Humidity;BMP_temperature;BMP_pressure;BME280_temperature;BME280_humidity;BME280_pressure;Samples;Min_cycle;Max_cycle;Signal;HPM_P1;HPM_P2
2023/07/20 00:01:45;;;;;;;2.80;2.60;;;20.30;1.00;;;;;;5034212;28;20199;-71
2023/07/20 00:04:11;;;;;;;3.27;2.37;;;20.20;1.00;;;;;;5034049;28;20497;-70
2023/07/20 00:06:40;;;;;;;3.00;2.70;;;20.20;1.00;;;;;;5033980;28;20274;-70
2023/07/20 00:09:06;;;;;;;3.60;2.90;;;20.10;1.00;;;;;;5033692;28;20450;-69
2023/07/20 00:11:35;;;;;;;4.70;3.87;;;20.10;1.00;;;;;;5033375;28;20414;-69
2023/07/20 00:14:00;;;;;;;3.30;3.00;;;20.10;1.00;;;;;;5033409;28;20479;-69
2023/07/20 00:16:26;;;;;;;3.43;3.13;;;20.10;1.00;;;;;;5033251;28;20525;-69
2023/07/20 00:18:51;;;;;;;3.33;3.03;;;20.20;1.00;;;;;;5033174;28;20326;-69
2023/07/20 00:21:17;;;;;;;3.70;3.30;;;20.20;1.00;;;;;;5033261;28;20273;-68
2023/07/20 00:23:42;;;;;;;4.17;3.23;;;20.20;1.00;;;;;;5033087;28;20224;-70
2023/07/20 00:26:08;;;;;;;3.33;3.03;;;20.10;1.00;;;;;;5033190;28;20183;-69
2023/07/20 00:28:34;;;;;;;7.63;3.80;;;20.10;1.00;;;;;;5033122;28;20183;-69
2023/07/20 00:31:00;;;;;;;4.80;3.10;;;20.00;1.00;;;;;;5033060;28;20176;-70
2023/07/20 00:33:25;;;;;;;6.70;3.33;;;20.00;1.00;;;;;;5032870;28;20182;-70
2023/07/20 00:35:51;;;;;;;3.73;3.33;;;20.00;1.00;;;;;;5032814;28;20937;-69
2023/07/20 00:38:16;;;;;;;4.50;3.70;;;20.00;1.00;;;;;;5032812;28;20195;-70
2023/07/20 00:40:42;;;;;;;3.70;3.30;;;20.00;1.00;;;;;;5032783;28;20675;-69
2023/07/20 00:43:08;;;;;;;4.30;3.90;;;20.00;1.00;;;;;;5032703;28;20215;-69
2023/07/20 00:45:34;;;;;;;3.27;2.97;;;19.90;1.00;;;;;;5032797;28;20179;-69
2023/07/20 00:48:01;;;;;;;3.90;3.60;;;19.90;1.00;;;;;;5032644;28;20422;-69
2023/07/20 00:50:28;;;;;;;3.73;3.43;;;20.00;1.00;;;;;;5014891;28;20418;-69
2023/07/20 00:52:56;;;;;;;5.23;3.40;;;20.00;1.00;;;;;;5032441;28;20462;-69
2023/07/20 00:55:23;;;;;;;5.07;4.20;;;20.00;1.00;;;;;;5032614;28;20407;-69
2023/07/20 00:57:49;;;;;;;3.80;3.50;;;19.90;1.00;;;;;;5032282;28;20804;-69
2023/07/20 01:00:15;;;;;;;3.17;2.87;;;19.90;1.00;;;;;;5032486;28;20419;-69
2023/07/20 01:02:41;;;;;;;4.53;3.50;;;20.00;1.00;;;;;;5032223;28;20788;-70
2023/07/20 01:05:07;;;;;;;4.43;3.83;;;19.90;1.00;;;;;;5032449;28;20405;-69
2023/07/20 01:07:38;;;;;;;4.33;3.93;;;19.80;1.00;;;;;;5032178;28;20206;-69
2023/07/20 01:10:16;;;;;;;5.53;3.30;;;19.80;1.00;;;;;;5032451;28;21122;-70
2023/07/20 01:12:43;;;;;;;6.23;3.70;;;19.80;1.00;;;;;;5032138;28;20413;-69
2023/07/20 01:15:09;;;;;;;4.17;3.70;;;19.80;1.00;;;;;;5032308;28;20825;-69
2023/07/20 01:17:35;;;;;;;4.77;4.20;;;19.70;1.00;;;;;;5032169;28;20430;-69
2023/07/20 01:20:01;;;;;;;5.43;3.53;;;19.70;1.00;;;;;;5014434;28;20445;-69
2023/07/20 01:22:32;;;;;;;4.60;3.83;;;19.70;1.00;;;;;;5031892;28;20446;-69
2023/07/20 01:25:35;;;;;;;3.70;3.30;;;19.70;1.00;;;;;;5032026;28;20566;-69
2023/07/20 01:28:07;;;;;;;3.70;3.40;;;19.70;1.00;;;;;;5031988;28;20422;-68
2023/07/20 01:30:57;;;;;;;3.90;3.50;;;19.80;1.00;;;;;;5031635;28;20868;-70
2023/07/20 01:33:25;;;;;;;3.73;3.43;;;19.70;1.00;;;;;;5031968;28;20391;-70
2023/07/20 01:35:58;;;;;;;4.20;3.87;;;19.70;1.00;;;;;;5031823;28;20407;-69
2023/07/20 01:38:24;;;;;;;5.67;3.90;;;19.70;1.00;;;;;;5014403;28;20410;-69
2023/07/20 01:40:51;;;;;;;5.13;4.30;;;19.70;1.00;;;;;;5031942;28;20965;-69
2023/07/20 01:43:17;;;;;;;4.30;3.80;;;19.70;1.00;;;;;;5031760;28;20515;-69
2023/07/20 01:45:43;;;;;;;3.83;3.43;;;19.60;1.00;;;;;;5013988;28;20800;-69
2023/07/20 01:48:09;;;;;;;4.00;3.47;;;19.60;1.00;;;;;;5031719;28;20430;-70
2023/07/20 01:50:35;;;;;;;6.10;3.30;;;19.60;1.00;;;;;;5031720;28;20456;-69
2023/07/20 01:53:01;;;;;;;4.17;3.87;;;19.60;1.00;;;;;;5031649;28;20508;-69
2023/07/20 01:55:27;;;;;;;3.80;3.40;;;19.60;1.00;;;;;;5031837;28;20171;-69
2023/07/20 01:57:53;;;;;;;4.53;4.13;;;19.70;1.00;;;;;;5054804;22;20490;-70
2023/07/20 02:00:21;;;;;;;3.70;3.40;;;19.60;1.00;;;;;;5032971;28;20180;-69
2023/07/20 02:02:46;;;;;;;3.93;3.67;;;19.50;1.00;;;;;;5032776;28;20437;-69
2023/07/20 02:05:12;;;;;;;4.70;3.50;;;19.40;1.00;;;;;;5032258;28;20449;-69
2023/07/20 02:07:38;;;;;;;4.37;3.80;;;19.40;1.00;;;;;;5034417;28;20196;-69
2023/07/20 02:10:04;;;;;;;4.30;3.90;;;19.40;1.00;;;;;;5032409;28;20172;-69
2023/07/20 02:12:33;;;;;;;3.70;3.40;;;19.40;1.00;;;;;;5035099;28;20198;-68
2023/07/20 02:14:59;;;;;;;3.63;3.33;;;19.40;1.00;;;;;;5033677;28;20409;-68
2023/07/20 02:17:24;;;;;;;4.70;3.80;;;19.40;1.00;;;;;;5033819;28;20468;-68
2023/07/20 02:19:54;;;;;;;3.47;3.13;;;19.40;1.00;;;;;;5033958;28;20414;-68
2023/07/20 02:22:20;;;;;;;5.07;3.63;;;19.40;1.00;;;;;;5033841;28;20201;-68
2023/07/20 02:24:46;;;;;;;4.37;3.97;;;19.30;1.00;;;;;;5033152;28;21009;-69
2023/07/20 02:27:12;;;;;;;5.53;3.77;;;19.30;1.00;;;;;;5033763;28;21008;-69
2023/07/20 02:29:38;;;;;;;6.43;4.33;;;19.30;1.00;;;;;;5032002;28;20183;-70
2023/07/20 02:32:04;;;;;;;4.03;3.63;;;19.20;1.00;;;;;;5031237;28;20410;-69
2023/07/20 02:34:29;;;;;;;5.23;3.90;;;19.30;1.00;;;;;;5030992;28;20183;-70
2023/07/20 02:37:00;;;;;;;3.57;3.37;;;19.20;1.00;;;;;;5030820;28;20836;-69
2023/07/20 02:39:27;;;;;;;4.30;3.43;;;19.20;1.00;;;;;;5031044;28;20164;-70
2023/07/20 02:41:52;;;;;;;6.30;3.70;;;19.00;1.00;;;;;;5031931;28;20504;-70
2023/07/20 02:44:18;;;;;;;4.20;3.80;;;19.00;1.00;;;;;;5034490;28;20545;-70
2023/07/20 02:46:43;;;;;;;4.33;3.43;;;19.00;1.00;;;;;;5034497;28;20210;-69
2023/07/20 02:49:09;;;;;;;4.40;3.87;;;19.00;1.00;;;;;;5034498;28;20172;-69
2023/07/20 02:51:35;;;;;;;3.30;3.00;;;18.90;1.00;;;;;;5034458;28;20171;-69
2023/07/20 02:54:01;;;;;;;4.10;3.70;;;18.90;1.00;;;;;;5034482;28;20184;-69
2023/07/20 02:56:26;;;;;;;5.80;3.70;;;18.90;1.00;;;;;;5034255;28;20222;-70
2023/07/20 02:58:52;;;;;;;4.87;3.53;;;18.80;1.00;;;;;;5034432;28;20402;-70
2023/07/20 03:01:18;;;;;;;4.13;3.70;;;18.80;1.00;;;;;;5034410;28;20172;-69
2023/07/20 03:03:46;;;;;;;4.33;3.57;;;18.70;1.00;;;;;;5034192;28;20217;-70
2023/07/20 03:06:13;;;;;;;4.20;3.80;;;18.70;1.00;;;;;;5034456;28;20225;-70
2023/07/20 03:08:38;;;;;;;5.40;3.43;;;18.60;1.00;;;;;;5034186;28;20457;-70
2023/07/20 03:11:04;;;;;;;4.90;3.30;;;18.60;1.00;;;;;;5034181;28;20437;-70
2023/07/20 03:13:29;;;;;;;4.33;3.20;;;18.50;1.00;;;;;;5033938;28;20211;-70
2023/07/20 03:15:55;;;;;;;3.93;3.63;;;18.50;1.00;;;;;;5034088;28;20660;-70
2023/07/20 03:18:20;;;;;;;6.53;3.90;;;18.50;1.00;;;;;;5034009;28;20275;-70
2023/07/20 03:20:46;;;;;;;3.53;3.23;;;18.40;1.00;;;;;;5032693;28;20207;-70
2023/07/20 03:23:12;;;;;;;4.10;3.70;;;18.40;1.00;;;;;;5033611;28;20240;-70
2023/07/20 03:25:38;;;;;;;3.40;3.10;;;18.30;1.00;;;;;;5033832;28;20179;-70
2023/07/20 03:28:04;;;;;;;3.30;3.00;;;18.20;1.00;;;;;;5033742;28;20191;-70
2023/07/20 03:30:29;;;;;;;3.97;3.67;;;18.10;1.00;;;;;;5033884;28;20911;-70
2023/07/20 03:32:55;;;;;;;3.33;3.03;;;18.10;1.00;;;;;;5033170;28;20660;-70
2023/07/20 03:35:20;;;;;;;4.00;3.27;;;18.00;1.00;;;;;;5033766;28;20283;-70
2023/07/20 03:37:46;;;;;;;4.50;3.40;;;17.90;1.00;;;;;;5033656;28;20408;-70
2023/07/20 03:40:11;;;;;;;3.00;2.60;;;17.80;1.00;;;;;;5033604;28;20702;-69
2023/07/20 03:42:38;;;;;;;3.80;3.40;;;17.80;1.00;;;;;;5032640;28;20176;-70
2023/07/20 03:45:06;;;;;;;4.20;3.47;;;17.70;1.00;;;;;;5033480;28;20179;-70
2023/07/20 03:47:31;;;;;;;3.93;3.33;;;17.60;1.00;;;;;;5033455;28;20445;-70
2023/07/20 03:49:57;;;;;;;4.43;3.43;;;17.50;1.00;;;;;;5033487;28;20931;-70
2023/07/20 03:52:23;;;;;;;3.97;2.93;;;17.50;1.00;;;;;;5032772;28;20675;-70
2023/07/20 03:54:48;;;;;;;4.10;3.33;;;17.50;1.00;;;;;;5033315;28;20210;-70
2023/07/20 03:57:14;;;;;;;3.27;2.97;;;17.50;1.00;;;;;;5033308;28;20281;-70
2023/07/20 03:59:39;;;;;;;4.17;3.00;;;17.50;1.00;;;;;;5033431;28;20242;-71
2023/07/20 04:02:05;;;;;;;3.43;2.70;;;17.50;1.00;;;;;;5033304;28;20186;-69
2023/07/20 04:04:31;;;;;;;4.10;3.70;;;17.40;1.00;;;;;;5033306;28;20643;-69
2023/07/20 04:06:56;;;;;;;2.73;2.53;;;17.40;1.00;;;;;;5033306;28;20436;-69
2023/07/20 04:09:22;;;;;;;6.37;3.30;;;17.40;1.00;;;;;;5033215;28;20183;-68
2023/07/20 04:11:48;;;;;;;3.23;2.53;;;17.40;1.00;;;;;;5032941;28;20268;-68
2023/07/20 04:14:13;;;;;;;3.60;2.60;;;17.40;1.00;;;;;;5031747;28;20218;-69
2023/07/20 04:16:39;;;;;;;4.33;2.50;;;17.50;1.00;;;;;;5031796;28;20211;-70
2023/07/20 04:19:04;;;;;;;3.73;3.20;;;17.50;1.00;;;;;;5032797;28;20207;-76
2023/07/20 04:21:30;;;;;;;5.17;3.10;;;17.50;1.00;;;;;;5031349;28;20281;-73
2023/07/20 04:23:55;;;;;;;2.83;2.50;;;17.50;1.00;;;;;;5032315;28;20211;-72
2023/07/20 04:26:21;;;;;;;5.57;3.10;;;17.60;1.00;;;;;;5032486;28;20274;-71
2023/07/20 04:28:47;;;;;;;5.00;3.40;;;17.60;1.00;;;;;;5032773;28;20210;-71
2023/07/20 04:31:14;;;;;;;3.87;2.80;;;17.70;1.00;;;;;;5032323;28;20346;-70
2023/07/20 04:33:40;;;;;;;2.97;2.67;;;17.70;1.00;;;;;;5032239;28;20944;-70
2023/07/20 04:36:06;;;;;;;4.70;3.23;;;17.70;1.00;;;;;;5032285;28;20414;-70
2023/07/20 04:38:31;;;;;;;3.23;2.50;;;17.80;1.00;;;;;;5032281;28;20446;-70
2023/07/20 04:40:57;;;;;;;2.80;2.37;;;17.90;1.00;;;;;;5032197;28;20186;-70
2023/07/20 04:43:22;;;;;;;2.77;2.57;;;18.00;1.00;;;;;;5032396;28;20207;-68
2023/07/20 04:45:48;;;;;;;3.30;2.87;;;18.00;1.00;;;;;;5030923;28;20188;-68
2023/07/20 04:48:15;;;;;;;3.50;3.20;;;18.20;1.00;;;;;;5032298;28;20206;-67
2023/07/20 04:50:42;;;;;;;3.70;3.40;;;18.40;1.00;;;;;;5032098;28;20182;-69
2023/07/20 04:53:10;;;;;;;4.53;3.67;;;18.60;1.00;;;;;;5031809;28;20405;-70
2023/07/20 04:55:36;;;;;;;3.70;3.30;;;18.70;1.00;;;;;;5032067;28;20417;-69
2023/07/20 04:58:03;;;;;;;4.13;3.03;;;18.80;1.00;;;;;;5031837;28;20457;-69
2023/07/20 05:00:29;;;;;;;6.60;3.37;;;18.90;1.00;;;;;;5031875;28;20429;-69
2023/07/20 05:02:55;;;;;;;3.87;3.30;;;19.00;1.00;;;;;;5031269;28;20982;-69
2023/07/20 05:05:20;;;;;;;5.00;3.37;;;19.10;1.00;;;;;;5029442;28;20509;-70
2023/07/20 05:07:46;;;;;;;4.17;3.10;;;19.20;1.00;;;;;;5031422;28;20965;-69
2023/07/20 05:10:12;;;;;;;3.80;3.30;;;19.30;1.00;;;;;;5031570;28;20176;-69
2023/07/20 05:12:37;;;;;;;3.77;3.37;;;19.50;1.00;;;;;;5031222;28;20524;-70
2023/07/20 05:15:03;;;;;;;3.60;3.00;;;19.50;1.00;;;;;;5031764;28;20187;-69
2023/07/20 05:17:29;;;;;;;3.80;3.37;;;19.80;1.00;;;;;;5031350;28;20357;-69
2023/07/20 05:19:54;;;;;;;4.50;3.47;;;19.90;1.00;;;;;;5031420;28;20428;-70
2023/07/20 05:22:20;;;;;;;4.87;3.93;;;20.10;1.00;;;;;;5031218;28;20552;-70
2023/07/20 05:24:46;;;;;;;3.13;2.83;;;20.30;1.00;;;;;;5031117;28;20292;-69
2023/07/20 05:27:12;;;;;;;4.77;3.40;;;20.40;1.00;;;;;;5031476;28;20253;-71
2023/07/20 05:29:37;;;;;;;8.67;4.47;;;20.50;1.00;;;;;;5030038;28;20179;-69
2023/07/20 05:32:03;;;;;;;4.17;3.83;;;20.70;1.00;;;;;;5030952;28;20747;-69
2023/07/20 05:34:29;;;;;;;3.70;3.33;;;20.70;1.00;;;;;;5031311;28;20186;-69
2023/07/20 05:36:55;;;;;;;4.10;3.70;;;20.60;1.00;;;;;;5031217;28;20449;-69
2023/07/20 05:39:20;;;;;;;3.73;3.43;;;20.80;1.00;;;;;;5031125;28;20183;-69
2023/07/20 05:41:46;;;;;;;5.00;3.80;;;20.80;1.00;;;;;;5031069;28;20491;-69
2023/07/20 05:44:12;;;;;;;4.93;3.67;;;21.00;1.00;;;;;;5031189;28;20203;-69
2023/07/20 05:46:38;;;;;;;5.03;3.30;;;21.10;1.00;;;;;;5031019;28;20609;-69
2023/07/20 05:49:03;;;;;;;4.03;3.70;;;20.90;1.00;;;;;;5031210;28;20421;-69
2023/07/20 05:51:29;;;;;;;4.60;4.20;;;21.00;1.00;;;;;;5031163;28;20241;-69
2023/07/20 05:53:54;;;;;;;3.80;3.50;;;21.20;1.00;;;;;;5031141;28;20248;-69
2023/07/20 05:56:20;;;;;;;6.13;3.57;;;21.20;1.00;;;;;;5031103;28;20213;-69
2023/07/20 05:58:45;;;;;;;3.87;3.57;;;21.00;1.00;;;;;;5031106;28;20539;-69
2023/07/20 06:01:11;;;;;;;3.90;3.50;;;21.00;1.00;;;;;;5031246;28;20721;-69
2023/07/20 06:03:37;;;;;;;6.47;3.77;;;20.90;1.00;;;;;;5030698;28;20199;-69
2023/07/20 06:06:04;;;;;;;4.30;3.90;;;21.10;1.00;;;;;;5031005;28;20167;-69
2023/07/20 06:08:30;;;;;;;3.73;3.43;;;21.10;1.00;;;;;;5031025;28;20438;-69
2023/07/20 06:10:56;;;;;;;6.67;3.97;;;21.00;1.00;;;;;;5030927;28;20923;-69
2023/07/20 06:13:21;;;;;;;4.73;3.50;;;21.10;1.00;;;;;;5030784;28;20422;-69
2023/07/20 06:15:47;;;;;;;3.93;3.53;;;21.00;1.00;;;;;;5032114;28;20187;-69
2023/07/20 06:18:13;;;;;;;4.43;3.30;;;20.80;1.00;;;;;;5034949;28;20603;-69
2023/07/20 06:20:39;;;;;;;3.87;3.57;;;20.80;1.00;;;;;;5034769;28;20380;-69
2023/07/20 06:23:05;;;;;;;4.00;3.30;;;21.20;1.00;;;;;;5034362;28;20469;-69
2023/07/20 06:25:30;;;;;;;4.57;3.60;;;21.20;1.00;;;;;;5034720;28;20175;-69
2023/07/20 06:27:56;;;;;;;5.33;4.93;;;21.40;1.00;;;;;;5034715;28;20278;-69
2023/07/20 06:30:22;;;;;;;4.23;3.83;;;21.70;1.00;;;;;;5034709;28;20210;-69
2023/07/20 06:32:48;;;;;;;4.10;3.80;;;22.20;1.00;;;;;;5034363;28;20666;-69
2023/07/20 06:35:14;;;;;;;4.73;4.23;;;22.50;1.00;;;;;;5033235;28;20500;-69
2023/07/20 06:37:39;;;;;;;5.63;4.63;;;22.60;1.00;;;;;;5034254;28;20446;-69
2023/07/20 06:40:06;;;;;;;6.70;5.00;;;22.50;1.00;;;;;;5034501;28;20468;-68
2023/07/20 06:42:31;;;;;;;4.40;4.00;;;22.20;1.00;;;;;;5034103;28;20202;-68
2023/07/20 06:44:57;;;;;;;4.63;4.00;;;22.60;1.00;;;;;;5034500;28;20508;-68
2023/07/20 06:47:23;;;;;;;4.57;4.17;;;22.60;1.00;;;;;;5034542;28;20207;-69
2023/07/20 06:49:49;;;;;;;3.73;3.43;;;22.90;1.00;;;;;;5034140;28;20444;-69
2023/07/20 06:52:15;;;;;;;4.40;4.10;;;23.30;1.00;;;;;;5031015;28;20180;-68
2023/07/20 06:54:40;;;;;;;4.33;4.03;;;23.60;1.00;;;;;;5031478;28;20459;-69
2023/07/20 06:57:06;;;;;;;4.00;3.70;;;23.60;1.00;;;;;;5032059;28;20727;-69
2023/07/20 06:59:32;;;;;;;6.23;5.20;;;24.60;1.00;;;;;;5032670;28;20262;-69
2023/07/20 07:01:57;;;;;;;4.03;3.63;;;25.80;1.00;;;;;;5033862;28;20286;-69
2023/07/20 07:04:23;;;;;;;4.40;4.10;;;27.40;1.00;;;;;;5033305;28;20278;-69
2023/07/20 07:06:48;;;;;;;4.77;4.37;;;27.00;1.00;;;;;;5052422;28;20268;-69
2023/07/20 07:09:14;;;;;;;4.90;4.50;;;27.80;1.00;;;;;;5040712;28;20558;-69
2023/07/20 07:11:39;;;;;;;8.73;4.70;;;27.80;1.00;;;;;;5055941;28;20194;-69
2023/07/20 07:14:05;;;;;;;4.57;4.27;;;28.30;1.00;;;;;;5036388;28;20187;-69
2023/07/20 07:16:30;;;;;;;5.03;4.63;;;28.80;1.00;;;;;;5049858;28;20195;-69
2023/07/20 07:18:56;;;;;;;5.50;5.07;;;29.00;1.00;;;;;;5041773;28;20188;-69
2023/07/20 07:21:22;;;;;;;4.40;4.10;;;29.90;1.00;;;;;;5055508;28;20183;-69
2023/07/20 07:23:47;;;;;;;5.30;4.80;;;30.20;1.00;;;;;;5041368;28;20667;-69
2023/07/20 07:26:13;;;;;;;4.03;3.73;;;29.00;1.00;;;;;;5035466;28;20591;-69
2023/07/20 07:28:39;;;;;;;4.17;3.87;;;27.90;1.00;;;;;;5035473;28;20203;-69
2023/07/20 07:31:05;;;;;;;4.50;4.10;;;28.20;1.00;;;;;;5035812;28;20274;-69
2023/07/20 07:33:31;;;;;;;4.33;4.03;;;28.30;1.00;;;;;;5044671;28;20644;-69
2023/07/20 07:35:57;;;;;;;4.30;4.00;;;29.60;1.00;;;;;;5034256;28;20426;-69
2023/07/20 07:38:23;;;;;;;6.17;5.67;;;30.50;1.00;;;;;;5034632;28;20452;-69
2023/07/20 07:40:48;;;;;;;8.13;5.00;;;32.90;1.00;;;;;;5034220;28;20828;-69
2023/07/20 07:43:14;;;;;;;6.00;4.30;;;33.40;1.00;;;;;;5034418;28;20210;-69
2023/07/20 07:45:40;;;;;;;4.83;4.30;;;33.70;1.00;;;;;;5034893;28;20202;-69
2023/07/20 07:48:06;;;;;;;15.13;5.07;;;35.10;1.00;;;;;;5034247;28;20632;-69
2023/07/20 07:50:33;;;;;;;4.23;3.93;;;35.80;1.00;;;;;;5035090;28;20433;-72
2023/07/20 07:52:59;;;;;;;6.40;4.20;;;37.70;1.00;;;;;;5034306;28;20425;-70
2023/07/20 07:55:28;;;;;;;4.70;4.30;;;38.90;1.00;;;;;;5039089;28;20429;-69
2023/07/20 07:57:54;;;;;;;5.07;4.67;;;40.70;1.00;;;;;;5050363;28;20454;-69
2023/07/20 08:00:20;;;;;;;5.70;5.30;;;42.00;1.00;;;;;;5045014;28;20905;-69
2023/07/20 08:02:47;;;;;;;4.53;4.20;;;40.40;1.00;;;;;;5050455;28;20499;-69
2023/07/20 08:05:13;;;;;;;5.20;4.80;;;40.00;1.00;;;;;;5032945;28;20241;-69
2023/07/20 08:07:39;;;;;;;4.90;4.50;;;38.90;1.00;;;;;;5032726;28;20425;-69
2023/07/20 08:10:06;;;;;;;5.60;5.20;;;37.90;1.00;;;;;;5032853;28;20246;-69
2023/07/20 08:12:32;;;;;;;4.93;4.63;;;37.30;1.00;;;;;;5032422;28;20179;-69
2023/07/20 08:14:57;;;;;;;5.30;4.90;;;37.10;1.00;;;;;;5032390;28;20425;-69
2023/07/20 08:17:23;;;;;;;5.30;4.80;;;37.40;1.00;;;;;;5032554;28;20199;-69
2023/07/20 08:19:48;;;;;;;5.13;4.73;;;38.20;1.00;;;;;;5032418;28;20195;-69
2023/07/20 08:22:14;;;;;;;5.50;4.47;;;38.70;1.00;;;;;;5032433;28;20210;-69
2023/07/20 08:24:40;;;;;;;4.60;4.30;;;37.40;1.00;;;;;;5032248;28;20466;-69
2023/07/20 08:27:06;;;;;;;4.40;4.10;;;37.30;1.00;;;;;;5032579;28;20191;-69
2023/07/20 08:29:32;;;;;;;5.27;4.80;;;37.00;1.00;;;;;;5032426;28;20426;-69
2023/07/20 08:31:57;;;;;;;4.80;4.50;;;36.10;1.00;;;;;;5032233;28;20582;-69
2023/07/20 08:34:23;;;;;;;5.80;5.30;;;35.80;1.00;;;;;;5031907;28;20187;-69
2023/07/20 08:36:48;;;;;;;6.43;5.20;;;35.40;1.00;;;;;;5032547;28;20203;-69
2023/07/20 08:39:14;;;;;;;5.00;4.60;;;35.40;1.00;;;;;;5032799;28;20187;-69
2023/07/20 08:41:42;;;;;;;5.33;4.93;;;36.90;1.00;;;;;;5032214;28;20215;-69
2023/07/20 08:44:09;;;;;;;4.60;4.30;;;36.50;1.00;;;;;;5031799;28;20207;-69
2023/07/20 08:46:36;;;;;;;5.03;4.60;;;35.80;1.00;;;;;;5032172;28;20808;-69
2023/07/20 08:49:02;;;;;;;4.97;4.67;;;35.70;1.00;;;;;;5032156;28;20426;-69
2023/07/20 08:51:29;;;;;;;4.70;4.40;;;34.30;1.00;;;;;;5031934;28;20768;-69
2023/07/20 08:53:54;;;;;;;4.77;4.40;;;32.90;1.00;;;;;;5031815;28;20201;-69
2023/07/20 08:56:21;;;;;;;5.00;4.60;;;32.50;1.00;;;;;;5031685;28;20414;-68
2023/07/20 08:58:47;;;;;;;5.27;4.70;;;30.80;1.00;;;;;;5031769;28;20183;-69
2023/07/20 09:01:14;;;;;;;6.20;4.63;;;31.70;1.00;;;;;;5031983;28;20977;-69
2023/07/20 09:03:42;;;;;;;5.20;4.70;;;33.20;1.00;;;;;;5031379;28;20505;-69
2023/07/20 09:06:08;;;;;;;4.57;4.17;;;32.10;1.00;;;;;;5032082;28;20497;-70
2023/07/20 09:08:37;;;;;;;4.87;4.57;;;30.60;1.00;;;;;;5031874;28;20430;-69
2023/07/20 09:11:03;;;;;;;5.33;4.83;;;31.40;1.00;;;;;;5031908;28;20187;-69
2023/07/20 09:13:28;;;;;;;5.23;4.83;;;30.50;1.00;;;;;;5031286;28;20856;-69
2023/07/20 09:15:54;;;;;;;5.50;5.10;;;30.90;1.00;;;;;;5031727;28;20191;-69
2023/07/20 09:18:28;;;;;;;5.27;4.87;;;32.40;1.00;;;;;;5031723;28;20219;-69
2023/07/20 09:20:59;;;;;;;5.00;4.70;;;31.20;1.00;;;;;;5031517;28;20422;-68
2023/07/20 09:23:34;;;;;;;4.97;4.57;;;29.50;1.00;;;;;;5031217;28;20461;-68
2023/07/20 09:25:59;;;;;;;4.43;4.13;;;27.90;1.00;;;;;;5031491;28;20413;-69
2023/07/20 09:28:25;;;;;;;5.33;4.93;;;26.80;1.00;;;;;;5031552;28;20742;-68
2023/07/20 09:30:51;;;;;;;4.70;4.40;;;26.30;1.00;;;;;;5032084;28;20175;-69
2023/07/20 09:33:21;;;;;;;11.23;6.37;;;26.00;1.00;;;;;;5031021;28;20174;-69
2023/07/20 09:35:47;;;;;;;5.30;4.90;;;25.90;1.00;;;;;;5031364;28;20257;-69
2023/07/20 09:38:14;;;;;;;4.57;4.27;;;26.10;1.00;;;;;;5030014;28;20449;-69
2023/07/20 09:40:41;;;;;;;4.50;4.20;;;25.90;1.00;;;;;;5031163;28;20198;-68
2023/07/20 09:43:10;;;;;;;6.70;6.00;;;25.50;1.00;;;;;;5030801;28;20418;-68
2023/07/20 09:45:41;;;;;;;5.20;4.90;;;25.10;1.00;;;;;;5031145;28;20418;-68
2023/07/20 09:48:08;;;;;;;5.10;4.80;;;24.90;1.00;;;;;;5031059;28;20520;-69
2023/07/20 09:50:39;;;;;;;4.57;4.27;;;25.00;1.00;;;;;;5030875;28;20406;-68
2023/07/20 09:53:04;;;;;;;5.83;5.43;;;25.00;1.00;;;;;;5031308;28;20441;-69
2023/07/20 09:55:31;;;;;;;6.03;4.73;;;25.20;1.00;;;;;;5031047;28;20410;-69
2023/07/20 09:57:56;;;;;;;4.40;4.00;;;25.40;1.00;;;;;;5031085;28;20215;-69
2023/07/20 10:00:22;;;;;;;4.70;4.13;;;25.40;1.00;;;;;;5030994;28;20418;-68
2023/07/20 10:02:51;;;;;;;5.00;4.60;;;25.40;1.00;;;;;;5030391;28;20191;-69
2023/07/20 10:05:18;;;;;;;4.73;4.40;;;25.40;1.00;;;;;;5030982;28;20190;-69
2023/07/20 10:07:51;;;;;;;5.37;5.00;;;25.20;1.00;;;;;;5031093;28;20430;-68
2023/07/20 10:10:18;;;;;;;4.60;4.30;;;25.30;1.00;;;;;;5030824;28;20422;-68
2023/07/20 10:12:46;;;;;;;7.37;4.53;;;25.30;1.00;;;;;;5030315;28;20418;-69
2023/07/20 10:15:40;;;;;;;4.80;4.50;;;25.30;1.00;;;;;;5030489;28;20422;-68
2023/07/20 10:18:23;;;;;;;4.13;3.83;;;25.40;1.00;;;;;;5031454;28;20932;-68
2023/07/20 10:20:51;;;;;;;4.63;4.27;;;25.70;1.00;;;;;;5031100;28;20429;-68
2023/07/20 10:23:17;;;;;;;4.77;4.37;;;25.40;1.00;;;;;;5030696;28;20477;-67
2023/07/20 10:25:43;;;;;;;4.93;4.50;;;25.10;1.00;;;;;;5030637;28;20806;-70
2023/07/20 10:28:11;;;;;;;5.17;4.53;;;25.10;1.00;;;;;;5030950;28;20500;-70
2023/07/20 10:30:37;;;;;;;4.97;4.57;;;24.90;1.00;;;;;;5030884;28;20485;-70
2023/07/20 10:33:04;;;;;;;4.23;3.93;;;24.80;1.00;;;;;;5030315;28;20422;-69
2023/07/20 10:35:30;;;;;;;15.73;6.13;;;24.80;1.00;;;;;;5030582;28;20461;-69
2023/07/20 10:38:01;;;;;;;4.30;3.90;;;25.20;1.00;;;;;;5029300;28;20466;-69
2023/07/20 10:40:34;;;;;;;6.63;4.30;;;25.50;1.00;;;;;;5011331;28;20564;-70
2023/07/20 10:43:07;;;;;;;5.10;4.60;;;25.70;1.00;;;;;;5016117;28;20425;-70
2023/07/20 10:45:40;;;;;;;5.13;3.73;;;25.60;1.00;;;;;;5030486;28;20436;-70
2023/07/20 10:48:22;;;;;;;4.47;4.17;;;25.30;1.00;;;;;;5030524;28;20973;-69
2023/07/20 10:51:16;;;;;;;4.23;3.93;;;25.10;1.00;;;;;;5030660;28;20456;-69
2023/07/20 10:53:42;;;;;;;6.10;5.30;;;25.30;1.00;;;;;;5030198;28;20429;-69
2023/07/20 10:56:19;;;;;;;6.93;4.07;;;25.70;1.00;;;;;;5030633;28;20455;-70
2023/07/20 10:58:44;;;;;;;4.00;3.70;;;26.10;1.00;;;;;;5029234;28;20645;-68
2023/07/20 11:01:14;;;;;;;4.20;3.90;;;26.30;1.00;;;;;;5030492;28;20432;-71
2023/07/20 11:03:40;;;;;;;4.33;3.87;;;26.50;1.00;;;;;;5031206;28;20210;-71
2023/07/20 11:06:24;;;;;;;4.30;4.00;;;26.80;1.00;;;;;;5034286;28;20911;-71
2023/07/20 11:09:03;;;;;;;4.20;3.80;;;26.80;1.00;;;;;;5034180;28;20430;-69
2023/07/20 11:11:31;;;;;;;5.13;4.70;;;26.70;1.00;;;;;;5033876;28;20430;-71
2023/07/20 11:14:02;;;;;;;5.63;4.20;;;26.40;1.00;;;;;;5034009;28;20414;-69
2023/07/20 11:16:43;;;;;;;4.63;4.23;;;26.10;1.00;;;;;;5034053;28;20414;-69
2023/07/20 11:19:25;;;;;;;12.33;4.87;;;25.90;1.00;;;;;;5033892;28;20440;-72
2023/07/20 11:21:54;;;;;;;4.93;4.53;;;25.90;1.00;;;;;;5033794;28;20429;-69
2023/07/20 11:24:20;;;;;;;4.30;4.00;;;26.10;1.00;;;;;;5033838;28;20457;-70
2023/07/20 11:26:47;;;;;;;4.40;4.10;;;26.30;1.00;;;;;;5033914;28;20441;-68
2023/07/20 11:29:15;;;;;;;5.10;4.70;;;26.30;1.00;;;;;;5033745;28;20179;-71
2023/07/20 11:31:42;;;;;;;4.13;3.90;;;26.60;1.00;;;;;;5033301;28;20434;-68
2023/07/20 11:34:12;;;;;;;4.50;4.13;;;26.70;1.00;;;;;;5033855;28;20780;-71
2023/07/20 11:36:42;;;;;;;6.13;5.53;;;26.90;1.00;;;;;;5033471;28;20434;-68
2023/07/20 11:39:15;;;;;;;4.63;4.33;;;27.00;1.00;;;;;;5033227;28;20748;-70
2023/07/20 11:41:49;;;;;;;4.70;4.30;;;27.00;1.00;;;;;;5033147;28;20440;-70
2023/07/20 11:44:16;;;;;;;4.30;4.00;;;27.40;1.00;;;;;;5033453;28;20832;-71
2023/07/20 11:46:42;;;;;;;4.80;4.40;;;27.50;1.00;;;;;;5033446;28;20442;-68
2023/07/20 11:49:08;;;;;;;5.00;4.60;;;27.50;1.00;;;;;;5033506;28;20425;-69
2023/07/20 11:51:35;;;;;;;4.43;4.13;;;27.30;1.00;;;;;;5033250;28;20513;-69
2023/07/20 11:54:02;;;;;;;3.83;3.63;;;26.60;1.00;;;;;;5033419;28;20281;-69
2023/07/20 11:56:28;;;;;;;4.40;4.10;;;26.60;1.00;;;;;;5033526;28;20927;-69
2023/07/20 11:59:02;;;;;;;4.77;4.47;;;26.60;1.00;;;;;;5033043;28;20440;-69
2023/07/20 12:01:31;;;;;;;4.30;4.00;;;26.80;1.00;;;;;;5033082;28;20428;-69
2023/07/20 12:03:57;;;;;;;6.90;4.20;;;26.90;1.00;;;;;;5033155;28;20916;-69
2023/07/20 12:06:27;;;;;;;4.33;3.97;;;26.80;1.00;;;;;;5033054;28;20413;-69
2023/07/20 12:08:56;;;;;;;4.70;4.30;;;26.70;1.00;;;;;;5032822;28;20791;-69
2023/07/20 12:11:36;;;;;;;4.17;3.87;;;26.90;1.00;;;;;;5033095;28;20825;-70
2023/07/20 12:14:03;;;;;;;4.10;3.80;;;27.30;1.00;;;;;;5032521;28;20516;-68
2023/07/20 12:16:30;;;;;;;4.40;4.03;;;27.30;1.00;;;;;;5032652;28;20762;-69
2023/07/20 12:19:10;;;;;;;4.57;4.30;;;27.70;1.00;;;;;;5032881;28;20900;-68
2023/07/20 12:21:37;;;;;;;4.57;4.27;;;27.80;1.00;;;;;;5032538;28;20500;-68
2023/07/20 12:24:04;;;;;;;4.70;4.17;;;27.80;1.00;;;;;;5032266;28;20470;-68
2023/07/20 12:26:30;;;;;;;4.50;4.13;;;27.30;1.00;;;;;;5032515;28;20460;-69
2023/07/20 12:28:56;;;;;;;6.00;4.50;;;27.20;1.00;;;;;;5032226;28;20488;-68
2023/07/20 12:31:23;;;;;;;4.33;3.93;;;27.20;1.00;;;;;;5032612;28;20815;-68
2023/07/20 12:33:49;;;;;;;5.20;4.60;;;27.10;1.00;;;;;;5032420;28;20202;-68
2023/07/20 12:36:14;;;;;;;4.53;4.23;;;27.20;1.00;;;;;;5032992;28;20455;-69
2023/07/20 12:38:41;;;;;;;4.13;3.80;;;27.30;1.00;;;;;;5032337;28;20544;-68
2023/07/20 12:41:09;;;;;;;4.47;4.20;;;26.90;1.00;;;;;;5032402;28;20179;-68
2023/07/20 12:43:35;;;;;;;4.47;4.17;;;27.30;1.00;;;;;;5032084;28;20461;-68
2023/07/20 12:46:01;;;;;;;4.73;4.33;;;27.90;1.00;;;;;;5032471;28;20418;-68
2023/07/20 12:48:26;;;;;;;5.03;4.63;;;28.20;1.00;;;;;;5031997;28;20207;-68
2023/07/20 12:50:52;;;;;;;4.47;4.17;;;27.90;1.00;;;;;;5032125;28;20588;-68
2023/07/20 12:53:18;;;;;;;4.63;4.23;;;27.70;1.00;;;;;;5031793;28;20179;-68
2023/07/20 12:55:44;;;;;;;4.50;4.20;;;27.60;1.00;;;;;;5030835;28;20297;-68
2023/07/20 12:58:12;;;;;;;4.10;3.80;;;27.80;1.00;;;;;;5031363;28;20223;-68